createdAt,value
2019-02-04T00:00:37.936Z,101373.30
2019-02-04T00:03:06.536Z,101371.47
2019-02-04T00:05:34.556Z,101370.58
2019-02-04T00:08:02.638Z,101374.95
2019-02-04T00:10:30.589Z,101376.88
2019-02-04T00:12:59.206Z,101374.80
2019-02-04T00:15:27.502Z,101379.66
2019-02-04T00:17:55.475Z,101379.14
2019-02-04T00:20:23.460Z,101385.45
2019-02-04T00:22:51.457Z,101378.38
2019-02-04T00:25:21.560Z,101380.21
2019-02-04T00:27:49.299Z,101383.69
2019-02-04T00:30:17.413Z,101391.66
2019-02-04T00:32:45.451Z,101388.59
2019-02-04T00:35:13.505Z,101385.41
2019-02-04T00:37:41.559Z,101386.73
2019-02-04T00:40:12.772Z,101387.61
2019-02-04T00:42:41.891Z,101388.32
2019-02-04T00:45:09.892Z,101388.31
2019-02-04T00:47:37.952Z,101398.28
2019-02-04T00:50:06.496Z,101393.48
2019-02-04T00:52:36.592Z,101392.41
2019-02-04T00:55:05.028Z,101391.74
2019-02-04T00:57:33.002Z,101393.30
2019-02-04T01:00:01.451Z,101396.95
2019-02-04T01:02:29.417Z,101400.25
2019-02-04T01:04:57.475Z,101398.94
2019-02-04T01:07:25.480Z,101393.17
2019-02-04T01:09:53.509Z,101404.48
2019-02-04T01:12:21.561Z,101401.52
2019-02-04T01:14:49.583Z,101407.86
2019-02-04T01:17:17.609Z,101415.36
2019-02-04T01:19:45.615Z,101415.96
2019-02-04T01:22:13.635Z,101208.87
2019-02-04T01:24:41.614Z,101416.56
2019-02-04T01:27:09.653Z,101421.09
2019-02-04T01:29:37.655Z,101425.94
2019-02-04T01:32:05.707Z,101430.61
2019-02-04T01:34:33.741Z,101431.91
2019-02-04T01:37:01.755Z,101436.69
2019-02-04T01:39:29.757Z,101439.41
2019-02-04T01:41:57.749Z,101438.45
2019-02-04T01:44:25.777Z,101434.53
2019-02-04T01:46:54.048Z,101431.20
2019-02-04T01:49:22.101Z,101444.97
2019-02-04T01:51:50.151Z,101449.28
2019-02-04T01:54:18.161Z,101446.55
2019-02-04T01:56:46.150Z,101453.98
2019-02-04T01:59:14.210Z,101453.98
2019-02-04T02:01:42.273Z,101445.24
2019-02-04T02:04:10.302Z,101445.13
2019-02-04T02:06:38.270Z,101452.58
2019-02-04T02:09:09.875Z,101450.91
2019-02-04T02:11:37.922Z,101449.41
2019-02-04T02:14:06.170Z,101454.95
2019-02-04T02:16:34.125Z,101446.37
2019-02-04T02:19:02.226Z,101445.48
2019-02-04T02:21:30.205Z,101457.84
2019-02-04T02:23:58.175Z,101453.20
2019-02-04T02:26:26.284Z,101454.05
2019-02-04T02:28:54.308Z,101454.86
2019-02-04T02:34:16.585Z,101457.52
2019-02-04T02:36:44.644Z,101448.86
2019-02-04T02:39:12.698Z,101460.09
2019-02-04T02:41:40.732Z,101462.30
2019-02-04T02:44:08.914Z,101466.80
2019-02-04T02:46:37.175Z,101459.79
2019-02-04T02:49:05.349Z,101467.95
2019-02-04T02:51:33.363Z,101473.06
2019-02-04T02:54:01.393Z,101467.87
2019-02-04T02:56:29.431Z,101467.45
2019-02-04T02:58:57.449Z,101474.41
2019-02-04T03:01:25.449Z,101475.68
2019-02-04T03:03:53.830Z,101476.36
2019-02-04T03:06:21.910Z,101474.54
2019-02-04T03:08:49.934Z,101474.39
2019-02-04T03:11:17.974Z,101476.90
2019-02-04T03:13:45.973Z,101483.55
2019-02-04T03:16:14.335Z,101481.37
2019-02-04T03:18:42.414Z,101485.60
2019-02-04T03:21:10.507Z,101486.91
2019-02-04T03:23:38.573Z,101492.19
2019-02-04T03:26:06.562Z,101487.66
2019-02-04T03:28:34.558Z,101486.26
2019-02-04T03:31:02.584Z,101482.36
2019-02-04T03:36:17.569Z,101482.66
2019-02-04T03:38:45.538Z,101484.98
2019-02-04T03:41:13.678Z,101477.17
2019-02-04T03:43:43.396Z,101479.44
2019-02-04T03:46:11.789Z,101483.33
2019-02-04T03:48:39.810Z,101487.29
2019-02-04T03:51:07.814Z,101492.36
2019-02-04T03:53:35.942Z,101485.98
2019-02-04T03:56:03.932Z,101497.06
2019-02-04T03:58:33.973Z,101498.52
2019-02-04T04:01:01.933Z,101495.25
2019-02-04T04:03:29.981Z,101491.42
2019-02-04T04:05:58.033Z,101503.03
2019-02-04T04:08:26.070Z,101507.53
2019-02-04T04:10:54.081Z,101502.98
2019-02-04T04:13:22.078Z,101502.70
2019-02-04T04:15:50.078Z,101493.52
2019-02-04T04:18:18.153Z,101495.22
2019-02-04T04:20:46.178Z,101483.58
2019-02-04T04:23:14.196Z,101485.57
2019-02-04T04:25:42.203Z,101485.39
2019-02-04T04:28:10.232Z,101484.16
2019-02-04T04:30:38.477Z,101490.11
2019-02-04T04:33:06.472Z,101490.79
2019-02-04T04:35:34.503Z,101502.52
2019-02-04T04:38:02.532Z,101499.58
2019-02-04T04:40:30.552Z,101503.85
2019-02-04T04:42:58.864Z,101505.86
2019-02-04T04:45:26.866Z,101501.15
2019-02-04T04:47:55.006Z,101502.52
2019-02-04T04:50:23.053Z,101501.67
2019-02-04T04:52:51.079Z,101499.94
2019-02-04T04:55:21.213Z,101508.40
2019-02-04T04:57:49.239Z,101507.62
2019-02-04T05:00:19.785Z,101509.03
2019-02-04T05:02:47.790Z,101511.17
2019-02-04T05:05:15.889Z,101506.12
2019-02-04T05:07:43.968Z,101508.02
2019-02-04T05:10:14.319Z,101502.55
2019-02-04T05:12:42.431Z,101510.72
2019-02-04T05:15:13.227Z,101513.62
2019-02-04T05:17:40.391Z,101508.08
2019-02-04T05:20:09.150Z,101502.45
2019-02-04T05:22:37.140Z,101499.58
2019-02-04T05:25:05.337Z,101496.08
2019-02-04T05:27:33.391Z,101503.63
2019-02-04T05:30:01.555Z,101503.23
2019-02-04T05:32:31.357Z,101495.58
2019-02-04T05:34:59.364Z,101502.72
2019-02-04T05:37:27.484Z,101506.59
2019-02-04T05:39:55.604Z,101510.31
2019-02-04T05:42:26.718Z,101507.69
2019-02-04T05:44:54.769Z,101507.45
2019-02-04T05:47:24.540Z,101502.20
2019-02-04T05:49:52.572Z,101503.33
2019-02-04T05:52:20.618Z,101501.02
2019-02-04T05:54:48.666Z,101505.08
2019-02-04T05:57:16.765Z,101495.23
2019-02-04T05:59:44.769Z,101490.89
2019-02-04T06:02:13.143Z,101495.53
2019-02-04T06:04:41.283Z,101502.34
2019-02-04T06:07:09.299Z,101503.88
2019-02-04T06:09:37.399Z,101506.38
2019-02-04T06:12:05.395Z,101508.63
2019-02-04T06:14:33.427Z,101510.02
2019-02-04T06:17:01.521Z,101503.73
2019-02-04T06:19:29.879Z,101506.89
2019-02-04T06:21:57.851Z,101504.58
2019-02-04T06:24:25.919Z,101507.06
2019-02-04T06:26:53.909Z,101504.55
2019-02-04T06:29:21.959Z,101508.88
2019-02-04T06:31:50.002Z,101512.14
2019-02-04T06:34:18.659Z,101518.08
2019-02-04T06:36:46.717Z,101516.97
2019-02-04T06:39:14.772Z,101523.04
2019-02-04T06:41:42.814Z,101521.80
2019-02-04T06:44:10.860Z,101523.47
2019-02-04T06:46:38.883Z,101527.95
2019-02-04T06:49:12.369Z,101532.62
2019-02-04T06:51:36.628Z,101526.98
2019-02-04T06:54:04.677Z,101532.01
2019-02-04T06:56:32.694Z,101532.34
2019-02-04T06:59:00.760Z,101532.53
2019-02-04T07:01:28.757Z,101533.50
2019-02-04T07:03:56.810Z,101536.42
2019-02-04T07:06:25.305Z,101540.13
2019-02-04T07:08:53.334Z,101540.42
2019-02-04T07:11:21.353Z,101542.86
2019-02-04T07:13:49.380Z,101542.98
2019-02-04T07:16:17.485Z,101541.46
2019-02-04T07:18:45.577Z,101550.61
2019-02-04T07:21:13.601Z,101552.34
2019-02-04T07:23:42.144Z,101546.78
2019-02-04T07:26:10.269Z,101553.95
2019-02-04T07:28:38.235Z,101561.92
2019-02-04T07:31:06.387Z,101552.92
2019-02-04T07:33:34.405Z,101551.61
2019-02-04T07:36:03.552Z,101560.97
2019-02-04T07:38:31.750Z,101573.46
2019-02-04T07:40:59.820Z,101568.41
2019-02-04T07:43:27.852Z,101565.86
2019-02-04T07:45:56.027Z,101569.30
2019-02-04T07:48:24.030Z,101563.06
2019-02-04T07:50:52.198Z,101565.49
2019-02-04T07:53:20.211Z,101571.64
2019-02-04T07:55:48.630Z,101566.30
2019-02-04T07:58:16.662Z,101560.86
2019-02-04T08:00:44.822Z,101558.38
2019-02-04T08:03:15.049Z,101561.38
2019-02-04T08:05:42.739Z,101563.52
2019-02-04T08:08:10.800Z,101564.67
2019-02-04T08:10:38.877Z,101551.92
2019-02-04T08:13:06.869Z,101553.53
2019-02-04T08:15:37.035Z,101549.56
2019-02-04T08:18:05.547Z,101556.84
2019-02-04T08:20:33.665Z,101548.33
2019-02-04T08:23:01.691Z,101545.27
2019-02-04T08:25:29.699Z,101542.56
2019-02-04T08:27:58.003Z,101540.56
2019-02-04T08:30:28.181Z,101532.50
2019-02-04T08:32:56.596Z,101528.35
2019-02-04T08:35:24.937Z,101528.40
2019-02-04T08:37:52.942Z,101530.39
2019-02-04T08:40:20.963Z,101528.16
2019-02-04T08:42:49.005Z,101527.48
2019-02-04T08:45:16.975Z,101528.36
2019-02-04T08:47:45.000Z,101530.00
2019-02-04T08:50:15.336Z,101533.39
2019-02-04T08:52:43.506Z,101527.18
2019-02-04T08:55:11.697Z,101532.67
2019-02-04T08:57:39.744Z,101533.35
2019-02-04T09:00:09.760Z,101531.11
2019-02-04T09:02:37.726Z,101532.32
2019-02-04T09:05:05.958Z,101529.34
2019-02-04T09:07:33.996Z,101534.41
2019-02-04T09:10:02.255Z,101530.38
2019-02-04T09:12:30.428Z,101528.11
2019-02-04T09:14:58.509Z,101526.16
2019-02-04T09:17:26.673Z,101526.13
2019-02-04T09:19:54.721Z,101524.55
2019-02-04T09:22:22.763Z,101517.27
2019-02-04T09:24:50.863Z,101521.67
2019-02-04T09:27:18.959Z,101525.27
2019-02-04T09:29:47.163Z,101517.04
2019-02-04T09:32:15.346Z,101515.64
2019-02-04T09:34:45.076Z,101522.55
2019-02-04T09:37:13.217Z,101515.59
2019-02-04T09:39:41.310Z,101506.94
2019-02-04T09:42:09.288Z,101508.36
2019-02-04T09:44:37.317Z,101511.48
2019-02-04T09:47:05.369Z,101507.41
2019-02-04T09:49:33.446Z,101502.16
2019-02-04T09:52:01.849Z,101499.19
2019-02-04T09:54:29.903Z,101501.98
2019-02-04T09:56:58.024Z,101495.48
2019-02-04T09:59:26.104Z,101499.09
2019-02-04T10:01:54.221Z,101491.76
2019-02-04T10:04:22.220Z,101482.35
2019-02-04T10:06:50.491Z,101487.52
2019-02-04T10:09:18.497Z,101485.45
2019-02-04T10:11:46.554Z,101476.59
2019-02-04T10:14:14.547Z,101480.67
2019-02-04T10:16:42.653Z,101475.27
2019-02-04T10:19:10.857Z,101485.39
2019-02-04T10:21:38.939Z,101478.44
2019-02-04T10:24:06.910Z,101479.77
2019-02-04T10:26:35.008Z,101481.86
2019-02-04T10:29:02.964Z,101476.17
2019-02-04T10:31:31.000Z,101471.81
2019-02-04T10:33:59.189Z,101465.71
2019-02-04T10:36:27.253Z,101463.48
2019-02-04T10:38:55.689Z,101458.82
2019-02-04T10:41:23.651Z,101455.73
2019-02-04T10:43:51.743Z,101456.56
2019-02-04T10:46:19.832Z,101244.19
2019-02-04T10:48:48.086Z,101447.76
2019-02-04T10:51:16.143Z,101441.62
2019-02-04T10:53:44.201Z,101450.91
2019-02-04T10:56:12.494Z,101443.66
2019-02-04T10:58:40.485Z,101446.41
2019-02-04T11:01:08.454Z,101444.82
2019-02-04T11:03:36.731Z,101433.29
2019-02-04T11:06:04.794Z,101431.86
2019-02-04T11:08:32.966Z,101431.72
2019-02-04T11:11:01.930Z,101428.67
2019-02-04T11:13:29.971Z,101424.72
2019-02-04T11:15:58.002Z,101419.86
2019-02-04T11:18:25.969Z,101423.85
2019-02-04T11:20:58.071Z,101410.09
2019-02-04T11:23:23.767Z,101418.91
2019-02-04T11:25:51.840Z,101421.61
2019-02-04T11:28:20.173Z,101411.88
2019-02-04T11:30:51.320Z,101411.95
2019-02-04T11:33:19.449Z,101411.75
2019-02-04T11:35:47.736Z,101048.25
2019-02-04T11:38:15.795Z,101416.66
2019-02-04T11:40:45.846Z,101412.83
2019-02-04T11:43:13.548Z,101407.41
2019-02-04T11:45:41.508Z,101410.23
2019-02-04T11:48:10.616Z,101411.45
2019-02-04T11:50:38.818Z,101414.57
2019-02-04T11:53:06.979Z,101415.52
2019-02-04T11:55:34.963Z,101418.27
2019-02-04T11:58:03.275Z,101416.51
2019-02-04T12:00:31.281Z,101419.62
2019-02-04T12:03:00.489Z,101417.36
2019-02-04T12:05:28.941Z,101425.34
2019-02-04T12:07:57.049Z,101425.91
2019-02-04T12:10:30.914Z,101426.69
2019-02-04T12:12:59.217Z,101428.49
2019-02-04T12:15:27.217Z,101425.41
2019-02-04T12:17:55.215Z,101427.56
2019-02-04T12:20:23.329Z,101426.29
2019-02-04T12:22:51.396Z,101425.36
2019-02-04T12:25:22.939Z,101421.89
2019-02-04T12:27:51.034Z,101418.38
2019-02-04T12:30:27.038Z,101412.16
2019-02-04T12:32:55.386Z,101417.90
2019-02-04T12:35:23.398Z,101412.22
2019-02-04T12:37:51.466Z,101412.66
2019-02-04T12:40:19.468Z,101406.48
2019-02-04T12:42:48.050Z,101406.97
2019-02-04T12:45:21.793Z,101399.83
2019-02-04T12:47:49.885Z,101398.95
2019-02-04T12:50:17.910Z,101399.02
2019-02-04T12:52:46.287Z,101384.84
2019-02-04T12:55:16.967Z,101395.57
2019-02-04T12:57:45.343Z,101385.41
2019-02-04T13:00:16.434Z,101377.89
2019-02-04T13:02:44.677Z,101374.80
2019-02-04T13:05:16.944Z,101377.00
2019-02-04T13:07:46.701Z,101375.27
2019-02-04T13:10:15.966Z,101369.50
2019-02-04T13:12:44.017Z,101372.61
2019-02-04T13:15:14.612Z,101370.39
2019-02-04T13:17:42.677Z,101361.48
2019-02-04T13:20:11.648Z,101371.30
2019-02-04T13:22:39.790Z,101364.20
2019-02-04T13:25:09.151Z,101365.08
2019-02-04T13:27:37.647Z,101361.09
2019-02-04T13:30:06.442Z,101358.41
2019-02-04T13:32:34.525Z,101357.54
2019-02-04T13:35:02.665Z,101356.66
2019-02-04T13:37:30.724Z,101352.70
2019-02-04T13:40:02.922Z,101355.77
2019-02-04T13:42:31.402Z,101345.56
2019-02-04T13:44:59.551Z,101354.44
2019-02-04T13:47:27.540Z,101344.72
2019-02-04T13:49:55.561Z,101344.72
2019-02-04T13:52:23.686Z,101339.83
2019-02-04T13:54:51.731Z,101337.63
2019-02-04T13:57:21.890Z,101330.98
2019-02-04T13:59:49.922Z,101333.20
2019-02-04T14:02:23.772Z,101333.62
2019-02-04T14:04:51.825Z,101330.98
2019-02-04T14:07:21.432Z,101328.79
2019-02-04T14:09:49.697Z,101334.53
2019-02-04T14:12:20.775Z,101333.18
2019-02-04T14:14:48.876Z,101327.42
2019-02-04T14:17:16.852Z,101333.60
2019-02-04T14:19:44.891Z,101335.41
2019-02-04T14:22:12.912Z,101337.16
2019-02-04T14:24:40.957Z,101332.77
2019-02-04T14:27:09.205Z,101335.86
2019-02-04T14:29:37.253Z,101326.10
2019-02-04T14:32:05.346Z,101324.27
2019-02-04T14:34:33.812Z,101316.77
2019-02-04T14:37:02.253Z,101315.94
2019-02-04T14:39:30.584Z,101310.58
2019-02-04T14:41:58.964Z,101310.99
2019-02-04T14:44:57.790Z,101317.63
2019-02-04T14:47:49.742Z,101323.28
2019-02-04T14:50:56.000Z,101318.45
2019-02-04T14:53:53.256Z,101314.05
2019-02-04T14:56:44.920Z,101303.43
2019-02-04T14:59:50.065Z,101310.41
2019-02-04T15:03:19.700Z,101315.75
2019-02-04T15:06:37.843Z,101308.55
2019-02-04T15:09:50.476Z,101309.47
2019-02-04T15:13:08.321Z,101300.08
2019-02-04T15:16:01.397Z,101301.06
2019-02-04T15:19:00.718Z,101300.16
2019-02-04T15:22:05.737Z,101302.79
2019-02-04T15:25:23.427Z,101299.27
2019-02-04T15:28:11.475Z,101294.69
2019-02-04T15:31:05.847Z,101296.03
2019-02-04T15:34:18.235Z,101291.69
2019-02-04T15:37:00.737Z,101292.45
2019-02-04T15:40:07.007Z,101284.41
2019-02-04T15:43:04.773Z,101285.33
2019-02-04T15:46:17.209Z,101279.97
2019-02-04T15:49:26.426Z,101280.39
2019-02-04T15:51:57.864Z,101279.11
2019-02-04T15:54:25.896Z,101274.63
2019-02-04T15:56:55.341Z,101270.17
2019-02-04T15:59:23.369Z,101263.95
2019-02-04T16:01:51.921Z,101252.89
2019-02-04T16:04:27.866Z,101261.30
2019-02-04T16:06:55.960Z,101254.17
2019-02-04T16:09:23.995Z,101260.33
2019-02-04T16:11:51.982Z,101255.44
2019-02-04T16:16:55.856Z,101253.23
2019-02-04T16:19:24.557Z,101249.23
2019-02-04T16:21:53.111Z,101251.33
2019-02-04T16:24:21.610Z,101242.98
2019-02-04T16:26:49.710Z,101246.08
2019-02-04T16:29:25.075Z,101242.45
2019-02-04T16:31:54.152Z,101246.33
2019-02-04T16:34:24.125Z,101250.81
2019-02-04T16:36:52.113Z,101247.19
2019-02-04T16:39:20.363Z,101248.00
2019-02-04T16:41:48.405Z,101251.14
2019-02-04T16:44:16.519Z,101258.22
2019-02-04T16:46:44.819Z,101250.23
2019-02-04T16:49:12.971Z,101252.93
2019-02-04T16:51:41.080Z,101245.31
2019-02-04T16:54:09.100Z,101250.07
2019-02-04T16:56:37.162Z,101257.59
2019-02-04T16:59:05.305Z,101260.65
2019-02-04T17:01:33.466Z,101258.44
2019-02-04T17:04:01.794Z,101265.13
2019-02-04T17:06:30.119Z,101267.72
2019-02-04T17:08:58.181Z,101268.97
2019-02-04T17:11:26.220Z,101268.53
2019-02-04T17:13:54.336Z,101267.57
2019-02-04T17:16:22.419Z,101277.71
2019-02-04T17:18:50.792Z,101273.77
2019-02-04T17:21:19.006Z,101271.15
2019-02-04T17:23:47.599Z,101271.15
2019-02-04T17:26:15.940Z,101269.36
2019-02-04T17:28:45.326Z,101266.64
2019-02-04T17:31:13.960Z,101272.02
2019-02-04T17:33:42.046Z,101273.33
2019-02-04T17:36:10.301Z,101266.66
2019-02-04T17:38:38.567Z,101274.19
2019-02-04T17:41:06.959Z,101270.19
2019-02-04T17:43:35.051Z,101273.36
2019-02-04T17:46:03.265Z,101272.86
2019-02-04T17:48:31.341Z,101275.92
2019-02-04T17:50:59.964Z,101277.22
2019-02-04T17:53:34.391Z,101271.05
2019-02-04T17:55:58.091Z,101271.48
2019-02-04T17:58:26.490Z,101259.17
2019-02-04T18:00:55.297Z,101263.50
2019-02-04T18:03:35.598Z,101251.91
2019-02-04T18:06:04.208Z,101246.67
2019-02-04T18:08:32.266Z,101251.16
2019-02-04T18:11:00.412Z,101240.55
2019-02-04T18:13:28.776Z,101242.34
2019-02-04T18:15:57.340Z,101237.11
2019-02-04T18:18:25.689Z,101230.42
2019-02-04T18:20:54.017Z,101222.48
2019-02-04T18:23:25.128Z,101227.39
2019-02-04T18:25:53.618Z,101231.84
2019-02-04T18:28:22.832Z,101239.26
2019-02-04T18:30:51.194Z,101232.67
2019-02-04T18:33:19.549Z,101231.83
2019-02-04T18:35:47.722Z,101231.44
2019-02-04T18:38:16.240Z,101224.33
2019-02-04T18:40:46.115Z,101215.44
2019-02-04T18:43:14.357Z,101222.47
2019-02-04T18:45:43.830Z,101218.55
2019-02-04T18:48:12.697Z,101230.50
2019-02-04T18:50:42.626Z,100894.73
2019-02-04T18:53:11.948Z,101226.56
2019-02-04T18:56:00.974Z,101226.13
2019-02-04T18:58:33.035Z,101226.95
2019-02-04T19:01:02.231Z,101227.78
2019-02-04T19:03:31.864Z,101220.70
2019-02-04T19:06:00.946Z,101232.67
2019-02-04T19:08:31.709Z,101227.83
2019-02-04T19:11:00.988Z,101231.41
2019-02-04T19:13:36.275Z,101227.44
2019-02-04T19:16:01.441Z,101227.91
2019-02-04T19:18:31.340Z,101233.53
2019-02-04T19:21:00.750Z,101229.59
2019-02-04T19:23:29.901Z,101224.36
2019-02-04T19:25:59.534Z,101223.39
2019-02-04T19:31:39.782Z,101213.65
2019-02-04T19:34:09.018Z,101209.27
2019-02-04T19:36:38.370Z,101201.81
2019-02-04T19:39:08.850Z,101192.04
2019-02-04T19:41:37.772Z,101199.50
2019-02-04T19:44:07.277Z,101195.09
2019-02-04T19:46:36.248Z,101202.17
2019-02-04T19:49:06.067Z,101202.07
2019-02-04T19:51:37.459Z,101190.19
2019-02-04T19:54:07.735Z,101189.45
2019-02-04T19:56:36.721Z,101187.14
2019-02-04T19:59:05.448Z,101183.64
2019-02-04T20:01:35.106Z,101188.02
2019-02-04T20:04:04.255Z,101185.89
2019-02-04T20:06:33.847Z,101195.53
2019-02-04T20:09:05.283Z,101189.34
2019-02-04T20:11:34.315Z,101193.28
2019-02-04T20:14:03.675Z,101192.47
2019-02-04T20:16:34.088Z,101049.33
2019-02-04T20:19:04.444Z,101174.84
2019-02-04T20:24:11.309Z,101184.88
2019-02-04T20:26:41.067Z,101178.35
2019-02-04T20:29:10.725Z,101175.27
2019-02-04T20:31:41.220Z,101171.27
2019-02-04T20:34:10.265Z,101168.66
2019-02-04T20:36:39.027Z,101166.41
2019-02-04T20:39:10.069Z,101162.31
2019-02-04T20:41:39.485Z,101157.98
2019-02-04T20:44:11.267Z,101164.67
2019-02-04T20:46:40.513Z,101153.61
2019-02-04T20:49:09.461Z,101155.81
2019-02-04T20:51:38.711Z,101154.52
2019-02-04T20:54:19.265Z,101163.38
2019-02-04T20:56:38.344Z,101164.28
2019-02-04T20:59:07.456Z,101176.22
2019-02-04T21:01:36.878Z,101177.16
2019-02-04T21:04:24.415Z,101180.13
2019-02-04T21:06:56.203Z,101181.05
2019-02-04T21:09:23.671Z,101178.84
2019-02-04T21:11:52.515Z,101181.90
2019-02-04T21:14:21.063Z,101190.34
2019-02-04T21:16:49.388Z,101197.96
2019-02-04T21:19:17.526Z,101194.39
2019-02-04T21:21:45.892Z,101192.65
2019-02-04T21:24:14.012Z,101201.16
2019-02-04T21:26:42.918Z,101202.34
2019-02-04T21:29:11.520Z,101214.62
2019-02-04T21:31:39.894Z,101211.19
2019-02-04T21:34:08.218Z,101211.96
2019-02-04T21:36:36.402Z,101215.95
2019-02-04T21:39:06.058Z,101219.09
2019-02-04T21:41:34.845Z,101219.06
2019-02-04T21:44:03.112Z,101222.30
2019-02-04T21:46:31.256Z,101221.83
2019-02-04T21:49:01.320Z,101220.48
2019-02-04T21:51:29.494Z,101226.16
2019-02-04T21:53:57.561Z,101226.66
2019-02-04T21:56:25.667Z,101223.09
2019-02-04T21:58:53.997Z,101222.64
2019-02-04T22:01:22.330Z,101222.72
2019-02-04T22:03:50.457Z,101219.12
2019-02-04T22:06:18.595Z,101220.07
2019-02-04T22:08:46.698Z,101219.16
2019-02-04T22:11:14.845Z,101224.94
2019-02-04T22:13:42.923Z,101220.53
2019-02-04T22:16:11.256Z,101217.03
2019-02-04T22:18:39.390Z,101211.59
2019-02-04T22:21:07.621Z,101077.41
2019-02-04T22:23:35.828Z,101216.08
2019-02-04T22:26:03.908Z,101216.98
2019-02-04T22:28:32.181Z,101219.25
2019-02-04T22:31:00.541Z,101215.75
2019-02-04T22:33:28.716Z,101214.80
2019-02-04T22:35:56.821Z,101213.50
2019-02-04T22:38:24.820Z,101218.38
2019-02-04T22:40:52.902Z,101224.52
2019-02-04T22:43:20.990Z,101222.81
2019-02-04T22:45:49.038Z,101224.98
2019-02-04T22:48:17.084Z,101225.45
2019-02-04T22:50:45.100Z,101226.72
2019-02-04T22:53:13.247Z,101235.62
2019-02-04T22:55:41.269Z,101236.92
2019-02-04T22:58:09.409Z,101235.64
2019-02-04T23:01:02.595Z,101240.06
2019-02-04T23:03:30.605Z,101240.46
2019-02-04T23:05:58.923Z,101240.98
2019-02-04T23:08:27.017Z,101243.11
2019-02-04T23:10:55.031Z,101244.41
2019-02-04T23:13:23.116Z,101240.39
2019-02-04T23:15:54.105Z,101246.59
2019-02-04T23:18:22.361Z,101239.07
2019-02-04T23:20:50.379Z,101244.44
2019-02-04T23:23:18.458Z,101239.53
2019-02-04T23:25:46.429Z,101232.02
2019-02-04T23:28:14.466Z,101220.50
2019-02-04T23:30:44.232Z,101213.43
2019-02-04T23:33:12.244Z,101201.53
2019-02-04T23:35:40.242Z,101202.85
2019-02-04T23:38:08.251Z,101197.19
2019-02-04T23:40:36.247Z,101197.16
2019-02-04T23:43:04.215Z,101199.34
2019-02-04T23:45:32.228Z,101210.73
2019-02-04T23:48:00.564Z,101216.10
2019-02-04T23:50:28.547Z,101218.28
2019-02-04T23:52:56.539Z,101217.03
2019-02-04T23:55:24.534Z,101215.29
2019-02-04T23:57:52.563Z,101214.36
